METAR AND TAF INFORMATION
METAR FOR NZWN
ADDS - METARS form results

(1854 UTC 14 July 2020)
Data provider http://aviationweather.gov/metar/data/
 
METAR text: NZWN 141830Z AUTO 16018KT 9999 FEW028/// OVC038/// 10/05 Q1023 NOSIG
Conditions at: NZWN (WELLINGTON INTL , NZ) observed 1830 UTC 14 July 2020
Temperature: 10.0°C (50°F)
Dewpoint: 5.0°C (41°F) [RH = 71%]
Pressure (altimeter): 30.21 inches Hg (1023.0 mb)
Winds: from the SSE (160 degrees) at 21 MPH (18 knots; 9.3 m/s)
Visibility: 6 or more miles (10+ km)
Ceiling: 3800 feet AGL
Clouds: few clouds at 2800 feet AGL
overcast cloud deck at 3800 feet AGL
Weather: no significant weather observed at this time

METAR text: NZWN 141800Z AUTO 17018KT 9999 BKN038/// 10/06 Q1023 NOSIG
Conditions at: NZWN (WELLINGTON INTL , NZ) observed 1800 UTC 14 July 2020
Temperature: 10.0°C (50°F)
Dewpoint: 6.0°C (43°F) [RH = 76%]
Pressure (altimeter): 30.21 inches Hg (1023.0 mb)
Winds: from the S (170 degrees) at 21 MPH (18 knots; 9.3 m/s)
Visibility: 6 or more miles (10+ km)
Ceiling: 3800 feet AGL
Clouds: broken clouds at 3800 feet AGL
Weather: no significant weather observed at this time

Forecast for: NZWN (WELLINGTON INTL , NZ)
Text: TAF NZWN 141703Z 1418/1518 17015KT 9999 BKN025
Forecast period: 1800 to 2000 UTC 14 July 2020
Forecast type: FROM: standard forecast or significant change
Winds: from the S (170 degrees) at 17 MPH (15 knots; 7.7 m/s)
Visibility: 6 or more miles 10+ km)
Ceiling: 2500 feet AGL
Clouds: broken clouds at 2500 feet AGL
Weather: no significant weather forecast for this period
Text: BECMG 1420/1422 17015G25KT
Forecast period: 2000 UTC 14 July 2020 to 1800 UTC 15 July 2020
Forecast type: BECOMING: Conditions expected to become as follows by 2200 UTC 14 July 2020
Winds: from the S (170 degrees) at 17 MPH (15 knots; 7.7 m/s)
gusting to 29 MPH (25 knots; 12.9 m/s)
Visibility: 6 or more miles 10+ km)
Ceiling: 2500 feet AGL
Clouds: broken clouds at 2500 feet AGL
Weather: no significant weather forecast for this period

 AIRPORT MAP

 RUNWAY INFORMATION
Runway 16 Runway length 6352 ft Runway width 148 ft
Runway elevation 41 ft Runway displaced threshold 210 ft Runway heading 183
Runway 34 Runway length 6352 ft Runway width 148 ft
Runway elevation 23 ft Runway displaced threshold 210 ft Runway heading 3

 AIRPORT FREQUENCIES
Type APP Name APP Frequency 122.3 MHZ
Type ATIS Name ATIS Frequency 126.9 MHZ
Type GND Name GND Frequency 121.9 MHZ
Type TWR Name TWR Frequency 118.8 MHZ

 AIRPORT NEAR NAVIGATION AIDS
Type NDB Name Newlands Frequency 358 KHZ
Type NDB Name Titahi Bay Frequency 234 KHZ
Type VOR-DME Name Wellington Frequency 112300 KHZ
Type NDB Name Wellington Frequency 298 KHZ



Powered by Virtual Airlines Manager [v2.6.2]